»·PEaware :: N72C KNYL-KOLS

N72C :: KNYL-KOLS

FLIGHT INFORMATION

Flight Status: Arrived
Operator: Privately registered:
United States
More flights under this callsign
Pilot: Charles C. (26995)
Aircraft: SOCATA TBM-900
(TBM9)
More flights by this aircraft type
Origin: KNYL Yuma MCAS/Yuma Intl
United States
Destination: KOLS Nogales Intl
United States
More flights between these airports :: More routes between these airports
Route: GBN
File this flight plan on PilotEdge
Remarks:
Altitude:
(Current/Filed)
17,500ft
Speed:
(Current/Filed)
280kts
Departed: 28-Sep-20 07:12 AM
Arrived: 28-Sep-20 08:09 AM
Distance/Time
Traveled:
205nm/0:56
Distance/Time
To Go:
Arrived

Flight Plot

Page will automatically refresh every two minutes.

Flight plan parsing failed; only flown route is shown


Map Options




Map Legend


Flown Route
Filed Route
Departure Airport
Arrival Airport
Navaid (VOR, NDB)
Fix

Horizontal Profiles

Position Reports

Time Latitude Longitude Heading Altitude Ground
Speed
28-Sep-20 07:04 32.660821 -114.609690 87 190ft 0kts
28-Sep-20 07:05 32.660821 -114.609690 87 190ft 0kts
28-Sep-20 07:06 32.661124 -114.609268 3 190ft 13kts
28-Sep-20 07:07 32.662212 -114.605552 359 190ft 9kts
28-Sep-20 07:08 32.666898 -114.605615 357 193ft 12kts
28-Sep-20 07:09 32.667184 -114.605408 74 193ft 0kts
28-Sep-20 07:10 32.666101 -114.604008 178 193ft 0kts
28-Sep-20 07:11 32.645693 -114.601628 146 838ft 138kts
28-Sep-20 07:12 32.658335 -114.565905 20 2962ft 156kts
28-Sep-20 07:13 32.672130 -114.524416 92 5156ft 154kts
28-Sep-20 07:14 32.677465 -114.473252 80 7243ft 164kts
28-Sep-20 07:15 32.686473 -114.419388 77 9215ft 170kts
28-Sep-20 07:16 32.696018 -114.362972 79 11342ft 180kts
28-Sep-20 07:17 32.705451 -114.304450 80 13613ft 184kts
28-Sep-20 07:18 32.715088 -114.244405 81 15625ft 188kts
28-Sep-20 07:19 32.725139 -114.181467 81 16968ft 218kts
28-Sep-20 07:20 32.738215 -114.099529 80 16952ft 273kts
28-Sep-20 07:21 32.752648 -114.008585 80 16944ft 285kts
28-Sep-20 07:22 32.767329 -113.915588 80 16944ft 285kts
28-Sep-20 07:23 32.781889 -113.822927 80 16969ft 283kts
28-Sep-20 07:24 32.796345 -113.731036 80 16970ft 283kts
28-Sep-20 07:25 32.810785 -113.639205 80 16973ft 283kts
28-Sep-20 07:27 32.825228 -113.547212 80 16977ft 282kts
28-Sep-20 07:28 32.839642 -113.455154 80 16978ft 282kts
28-Sep-20 07:29 32.853972 -113.363231 80 16978ft 282kts
28-Sep-20 07:30 32.868251 -113.271120 81 16979ft 282kts
28-Sep-20 07:31 32.882428 -113.179144 81 16979ft 282kts
28-Sep-20 07:32 32.896490 -113.087213 81 16979ft 282kts
28-Sep-20 07:33 32.910480 -112.994950 81 16979ft 284kts
28-Sep-20 07:34 32.924477 -112.901143 79 16978ft 290kts
28-Sep-20 07:35 32.938420 -112.806000 78 16978ft 292kts
28-Sep-20 07:36 32.952417 -112.710678 78 16978ft 291kts
28-Sep-20 07:37 32.966421 -112.615729 78 16978ft 291kts
28-Sep-20 07:38 32.942162 -112.535489 157 16984ft 292kts
28-Sep-20 07:39 32.864614 -112.507889 168 16979ft 293kts
28-Sep-20 07:40 32.790822 -112.473444 134 16989ft 293kts
28-Sep-20 07:41 32.733493 -112.403979 133 16978ft 294kts
28-Sep-20 07:42 32.676330 -112.334948 134 16978ft 294kts
28-Sep-20 07:43 32.618849 -112.265674 134 16989ft 294kts
28-Sep-20 07:43 32.571209 -112.208363 134 17005ft 293kts
28-Sep-20 07:45 32.504098 -112.127781 134 17027ft 294kts
28-Sep-20 07:46 32.446614 -112.058903 134 17042ft 294kts
28-Sep-20 07:46 32.398836 -112.001756 134 17046ft 294kts
28-Sep-20 07:48 32.331548 -111.921429 134 17057ft 294kts
28-Sep-20 07:48 32.283663 -111.864374 134 17073ft 294kts
28-Sep-20 07:49 32.225977 -111.795762 134 17095ft 294kts
28-Sep-20 07:50 32.168264 -111.727247 134 17111ft 294kts
28-Sep-20 07:51 32.110619 -111.658944 134 17116ft 294kts
28-Sep-20 07:52 32.052745 -111.590500 134 17116ft 294kts
28-Sep-20 07:53 31.994883 -111.522199 134 17116ft 294kts
28-Sep-20 07:54 31.938012 -111.455200 134 17429ft 290kts
28-Sep-20 07:55 31.876692 -111.383085 134 14897ft 326kts
28-Sep-20 07:56 31.814439 -111.310025 135 13154ft 308kts
28-Sep-20 07:57 31.754515 -111.239849 135 11549ft 302kts
28-Sep-20 07:58 31.696139 -111.171601 135 9930ft 286kts
28-Sep-20 07:59 31.637108 -111.107178 144 8316ft 291kts
28-Sep-20 08:00 31.570917 -111.052118 144 6712ft 291kts
28-Sep-20 08:01 31.509952 -110.999848 134 5487ft 247kts
28-Sep-20 08:02 31.466309 -110.948084 134 5482ft 192kts
28-Sep-20 08:03 31.430670 -110.905902 134 5504ft 185kts
28-Sep-20 08:04 31.394482 -110.863414 132 5478ft 165kts
28-Sep-20 08:05 31.408911 -110.826525 42 5313ft 140kts
28-Sep-20 08:06 31.439206 -110.803142 346 5231ft 126kts
28-Sep-20 08:07 31.433911 -110.827738 226 4374ft 97kts
28-Sep-20 08:08 31.417287 -110.848420 225 3892ft 39kts
28-Sep-20 08:09 31.417518 -110.850805 41 3881ft 8kts
28-Sep-20 08:10 31.418237 -110.849939 48 3888ft 0kts
28-Sep-20 08:11 31.418237 -110.849939 48 3888ft 0kts
28-Sep-20 08:12 31.418237 -110.849939 48 3888ft 0kts

Navigation Log

Ident Type
Flight plan parsing failed, navigation log unavailable